createdAt,value
2022-10-05T00:00:26.950Z,100708.66
2022-10-05T00:01:01.927Z,100699.88
2022-10-05T00:01:36.514Z,100708.31
2022-10-05T00:02:17.318Z,100708.84
2022-10-05T00:02:50.359Z,100705.09
2022-10-05T00:03:22.784Z,100710.00
2022-10-05T00:04:06.443Z,100705.84
2022-10-05T00:04:38.942Z,100709.09
2022-10-05T00:05:24.209Z,100707.41
2022-10-05T00:05:57.384Z,100705.50
2022-10-05T00:06:30.490Z,100717.84
2022-10-05T00:07:17.267Z,100707.25
2022-10-05T00:07:49.342Z,100713.25
2022-10-05T00:08:25.581Z,100714.56
2022-10-05T00:08:57.629Z,100713.47
2022-10-05T00:09:31.872Z,100712.34
2022-10-05T00:10:13.839Z,100708.78
2022-10-05T00:10:46.729Z,100712.50
2022-10-05T00:11:18.722Z,100717.34
2022-10-05T00:11:51.575Z,100708.59
2022-10-05T00:12:25.117Z,100713.81
2022-10-05T00:12:57.012Z,100708.25
2022-10-05T00:13:30.852Z,100716.84
2022-10-05T00:14:14.706Z,100716.50
2022-10-05T00:14:49.479Z,100710.84
2022-10-05T00:15:22.472Z,100704.13
2022-10-05T00:16:09.602Z,100708.66
2022-10-05T00:16:41.661Z,100709.69
2022-10-05T00:17:23.087Z,100711.16
2022-10-05T00:17:55.714Z,100711.81
2022-10-05T00:18:27.545Z,100711.44
2022-10-05T00:18:59.827Z,100708.53
2022-10-05T00:19:35.593Z,100703.19
2022-10-05T00:20:23.513Z,100704.94
2022-10-05T00:20:55.371Z,100711.06
2022-10-05T00:21:28.973Z,100707.28
2022-10-05T00:22:17.226Z,100703.75
2022-10-05T00:23:01.090Z,100709.09
2022-10-05T00:23:32.922Z,100708.06
2022-10-05T00:24:10.367Z,100707.03
2022-10-05T00:24:42.478Z,100707.69
2022-10-05T00:25:19.043Z,100706.47
2022-10-05T00:25:51.160Z,100703.38
2022-10-05T00:26:25.367Z,100707.22
2022-10-05T00:27:01.545Z,100711.63
2022-10-05T00:27:37.529Z,100712.44
2022-10-05T00:28:17.780Z,100709.69
2022-10-05T00:28:50.333Z,100716.47
2022-10-05T00:29:23.343Z,100712.31
2022-10-05T00:29:59.743Z,100710.75
2022-10-05T00:30:33.912Z,100708.22
2022-10-05T00:31:16.670Z,100710.12
2022-10-05T00:31:50.067Z,100712.31
2022-10-05T00:32:21.901Z,100707.53
2022-10-05T00:32:58.688Z,100706.03
2022-10-05T00:33:32.005Z,100705.37
2022-10-05T00:34:04.257Z,100708.44
2022-10-05T00:34:36.445Z,100705.69
2022-10-05T00:35:09.601Z,100709.38
2022-10-05T00:35:41.481Z,100709.72
2022-10-05T00:36:14.447Z,100704.38
2022-10-05T00:36:46.616Z,100700.19
2022-10-05T00:37:18.670Z,100709.03
2022-10-05T00:37:55.356Z,100703.03
2022-10-05T00:38:28.440Z,100714.59
2022-10-05T00:39:02.021Z,100706.50
2022-10-05T00:39:36.146Z,100708.13
2022-10-05T00:40:37.560Z,100708.75
2022-10-05T00:41:22.362Z,100700.75
2022-10-05T00:42:13.971Z,100706.25
2022-10-05T00:43:05.532Z,100698.59
2022-10-05T00:44:04.203Z,100705.53
2022-10-05T00:44:36.299Z,100705.69
2022-10-05T00:45:13.822Z,100702.56
2022-10-05T00:46:07.860Z,100704.16
2022-10-05T00:47:12.618Z,100704.97
2022-10-05T00:48:02.409Z,100700.69
2022-10-05T00:48:40.122Z,100710.72
2022-10-05T00:49:33.681Z,100711.87
2022-10-05T00:50:21.144Z,100708.97
2022-10-05T00:50:52.999Z,100710.22
2022-10-05T00:51:28.818Z,100709.59
2022-10-05T00:52:25.935Z,100708.34
2022-10-05T00:53:24.515Z,100702.03
2022-10-05T00:54:02.931Z,100701.78
2022-10-05T00:54:47.388Z,100697.53
2022-10-05T00:55:44.009Z,100699.78
2022-10-05T00:56:51.740Z,100702.88
2022-10-05T00:57:35.297Z,100703.84
2022-10-05T00:58:15.817Z,100701.63
2022-10-05T00:59:47.502Z,100711.37
2022-10-05T01:00:25.294Z,100705.63
2022-10-05T01:01:11.818Z,100710.22
2022-10-05T01:02:16.414Z,100704.31
2022-10-05T01:03:22.790Z,100701.72
2022-10-05T01:04:19.448Z,100697.44
2022-10-05T01:05:07.805Z,100694.03
2022-10-05T01:06:12.742Z,100699.72
2022-10-05T01:07:12.265Z,100706.50
2022-10-05T01:07:49.973Z,100700.28
2022-10-05T01:08:50.825Z,100698.50
2022-10-05T01:09:32.927Z,100698.37
2022-10-05T01:10:10.776Z,100696.09
2022-10-05T01:10:48.361Z,100696.28
2022-10-05T01:11:29.225Z,100698.50
2022-10-05T01:12:16.338Z,100697.87
2022-10-05T01:13:11.717Z,100701.94
2022-10-05T01:14:05.683Z,100704.53
2022-10-05T01:15:05.202Z,100708.91
2022-10-05T01:15:45.121Z,100709.13
2022-10-05T01:16:30.957Z,100715.28
2022-10-05T01:17:20.424Z,100714.00
2022-10-05T01:18:11.028Z,100720.53
2022-10-05T01:19:16.616Z,100717.63
2022-10-05T01:20:15.819Z,100715.72
2022-10-05T01:20:56.513Z,100711.84
2022-10-05T01:21:33.325Z,100714.78
2022-10-05T01:22:30.058Z,100711.37
2022-10-05T01:23:23.645Z,100720.94
2022-10-05T01:24:07.500Z,100715.78
2022-10-05T01:25:26.956Z,100720.19
2022-10-05T01:26:23.518Z,100715.63
2022-10-05T01:27:19.052Z,100712.84
2022-10-05T01:28:13.053Z,100716.69
2022-10-05T01:28:54.057Z,100717.12
2022-10-05T01:29:39.021Z,100715.41
2022-10-05T01:30:13.532Z,100723.53
2022-10-05T01:31:06.391Z,100720.59
2022-10-05T01:31:59.416Z,100720.44
2022-10-05T01:33:00.995Z,100716.53
2022-10-05T01:33:44.035Z,100718.47
2022-10-05T01:34:25.529Z,100727.09
2022-10-05T01:35:24.589Z,100724.47
2022-10-05T01:36:15.068Z,100717.31
2022-10-05T01:36:58.713Z,100721.03
2022-10-05T01:37:43.918Z,100718.47
2022-10-05T01:38:35.965Z,100728.37
2022-10-05T01:39:23.808Z,100721.06
2022-10-05T01:40:31.345Z,100723.00
2022-10-05T01:41:19.682Z,100721.75
2022-10-05T01:41:57.378Z,100727.41
2022-10-05T01:43:07.623Z,100720.94
2022-10-05T01:44:02.397Z,100728.06
2022-10-05T01:44:48.986Z,100731.63
2022-10-05T01:45:44.454Z,100734.56
2022-10-05T01:46:34.500Z,100729.69
2022-10-05T01:47:13.125Z,100731.03
2022-10-05T01:47:50.124Z,100729.34
2022-10-05T01:48:46.633Z,100725.47
2022-10-05T01:49:38.744Z,100727.25
2022-10-05T01:50:28.751Z,100734.06
2022-10-05T01:51:10.400Z,100731.78
2022-10-05T01:51:48.066Z,100725.78
2022-10-05T01:52:53.359Z,100725.13
2022-10-05T01:53:35.874Z,100730.50
2022-10-05T01:54:29.276Z,100730.53
2022-10-05T01:55:33.459Z,100732.66
2022-10-05T01:56:24.979Z,100735.28
2022-10-05T01:57:05.756Z,100737.06
2022-10-05T01:57:44.086Z,100746.31
2022-10-05T01:58:37.443Z,100739.47
2022-10-05T01:59:33.218Z,100734.25
2022-10-05T02:00:12.383Z,100744.66
2022-10-05T02:01:06.362Z,100740.59
2022-10-05T02:01:41.371Z,100731.97
2022-10-05T02:02:20.790Z,100744.94
2022-10-05T02:03:14.114Z,100743.00
2022-10-05T02:03:53.244Z,100740.91
2022-10-05T02:05:02.816Z,100745.44
2022-10-05T02:05:54.447Z,100740.59
2022-10-05T02:06:32.520Z,100736.84
2022-10-05T02:07:13.865Z,100743.19
2022-10-05T02:07:52.684Z,100744.03
2022-10-05T02:08:32.093Z,100746.28
2022-10-05T02:09:26.695Z,100741.28
2022-10-05T02:10:07.896Z,100743.06
2022-10-05T02:10:52.344Z,100745.97
2022-10-05T02:11:24.272Z,100737.97
2022-10-05T02:12:05.357Z,100749.06
2022-10-05T02:12:38.959Z,100747.25
2022-10-05T02:13:21.038Z,100749.37
2022-10-05T02:14:01.246Z,100736.72
2022-10-05T02:14:41.328Z,100751.16
2022-10-05T02:15:24.193Z,100748.25
2022-10-05T02:16:03.403Z,100745.63
2022-10-05T02:16:41.216Z,100742.41
2022-10-05T02:17:35.310Z,100742.75
2022-10-05T02:18:14.394Z,100748.94
2022-10-05T02:19:21.554Z,100745.19
2022-10-05T02:20:06.216Z,100741.75
2022-10-05T02:20:42.352Z,100743.03
2022-10-05T02:21:14.939Z,100747.56
2022-10-05T02:22:10.592Z,100741.56
2022-10-05T02:22:56.096Z,100742.25
2022-10-05T02:23:33.629Z,100745.66
2022-10-05T02:24:11.850Z,100743.69
2022-10-05T02:24:58.771Z,100757.03
2022-10-05T02:25:35.431Z,100749.84
2022-10-05T02:26:11.277Z,100747.75
2022-10-05T02:26:43.614Z,100759.13
2022-10-05T02:27:23.294Z,100745.00
2022-10-05T02:28:14.187Z,100748.75
2022-10-05T02:28:56.342Z,100748.59
2022-10-05T02:29:32.291Z,100746.78
2022-10-05T02:30:10.432Z,100750.19
2022-10-05T02:30:51.511Z,100745.66
2022-10-05T02:31:40.465Z,100748.56
2022-10-05T02:32:21.717Z,100745.78
2022-10-05T02:33:03.112Z,100749.19
2022-10-05T02:33:37.373Z,100744.00
2022-10-05T02:34:26.937Z,100743.31
2022-10-05T02:35:04.328Z,100748.69
2022-10-05T02:35:37.063Z,100746.75
2022-10-05T02:36:32.915Z,100750.16
2022-10-05T02:37:33.038Z,100741.09
2022-10-05T02:38:14.569Z,100748.53
2022-10-05T02:39:11.323Z,100749.34
2022-10-05T02:39:58.328Z,100745.28
2022-10-05T02:40:56.184Z,100746.53
2022-10-05T02:41:47.115Z,100748.31
2022-10-05T02:42:24.802Z,100746.34
2022-10-05T02:43:28.068Z,100747.81
2022-10-05T02:44:18.618Z,100743.62
2022-10-05T02:45:11.453Z,100751.12
2022-10-05T02:46:09.671Z,100751.31
2022-10-05T02:47:18.517Z,100745.28
2022-10-05T02:47:59.225Z,100750.47
2022-10-05T02:48:42.800Z,100746.72
2022-10-05T02:49:23.302Z,100747.88
2022-10-05T02:50:08.398Z,100751.78
2022-10-05T02:51:09.733Z,100763.50
2022-10-05T02:52:00.029Z,100757.31
2022-10-05T02:53:00.641Z,100759.41
2022-10-05T02:54:01.018Z,100758.47
2022-10-05T02:54:44.856Z,100757.81
2022-10-05T02:55:38.622Z,100762.03
2022-10-05T02:56:16.640Z,100756.03
2022-10-05T02:57:31.634Z,100759.28
2022-10-05T02:58:23.938Z,100761.56
2022-10-05T02:59:15.053Z,100764.50
2022-10-05T03:00:02.650Z,100760.28
2022-10-05T03:00:42.632Z,100765.28
2022-10-05T03:01:28.088Z,100767.75
2022-10-05T03:02:12.535Z,100765.47
2022-10-05T03:02:52.563Z,100771.47
2022-10-05T03:03:39.728Z,100773.75
2022-10-05T03:04:14.603Z,100767.25
2022-10-05T03:04:58.062Z,100767.75
2022-10-05T03:05:37.598Z,100761.56
2022-10-05T03:06:18.119Z,100763.03
2022-10-05T03:07:12.017Z,100766.09
2022-10-05T03:08:26.038Z,100764.34
2022-10-05T03:09:05.889Z,100765.47
2022-10-05T03:10:01.656Z,100766.44
2022-10-05T03:10:52.592Z,100764.50
2022-10-05T03:11:46.869Z,100763.19
2022-10-05T03:12:36.337Z,100767.12
2022-10-05T03:13:45.520Z,100765.13
2022-10-05T03:14:30.325Z,100760.94
2022-10-05T03:15:17.206Z,100758.00
2022-10-05T03:16:21.917Z,100762.22
2022-10-05T03:17:15.755Z,100759.94
2022-10-05T03:18:01.682Z,100762.06
2022-10-05T03:18:42.860Z,100763.03
2022-10-05T03:19:38.884Z,100768.41
2022-10-05T03:20:26.708Z,100768.25
2022-10-05T03:21:22.718Z,100764.19
2022-10-05T03:22:00.627Z,100767.25
2022-10-05T03:23:17.203Z,100766.44
2022-10-05T03:24:22.966Z,100766.28
2022-10-05T03:25:03.444Z,100764.19
2022-10-05T03:26:20.942Z,100759.63
2022-10-05T03:26:52.850Z,100758.63
2022-10-05T03:27:42.026Z,100754.59
2022-10-05T03:28:29.204Z,100751.03
2022-10-05T03:29:39.520Z,100750.53
2022-10-05T03:30:21.768Z,100745.19
2022-10-05T03:31:20.732Z,100750.53
2022-10-05T03:32:18.499Z,100754.12
2022-10-05T03:32:50.648Z,100739.66
2022-10-05T03:33:34.350Z,100749.25
2022-10-05T03:34:15.194Z,100748.75
2022-10-05T03:35:04.117Z,100750.03
2022-10-05T03:35:49.207Z,100739.97
2022-10-05T03:36:43.038Z,100742.75
2022-10-05T03:37:49.595Z,100746.66
2022-10-05T03:38:43.606Z,100743.56
2022-10-05T03:39:28.136Z,100751.81
2022-10-05T03:40:16.018Z,100748.56
2022-10-05T03:41:01.557Z,100746.97
2022-10-05T03:41:50.127Z,100744.50
2022-10-05T03:42:38.959Z,100749.56
2022-10-05T03:43:40.017Z,100749.56
2022-10-05T03:44:21.153Z,100750.84
2022-10-05T03:45:28.456Z,100764.16
2022-10-05T03:46:12.429Z,100763.19
2022-10-05T03:47:14.492Z,100769.69
2022-10-05T03:47:50.549Z,100764.47
2022-10-05T03:48:28.585Z,100770.31
2022-10-05T03:49:00.654Z,100772.25
2022-10-05T03:49:45.461Z,100760.25
2022-10-05T03:50:51.771Z,100769.03
2022-10-05T03:51:29.819Z,100769.34
2022-10-05T03:52:28.081Z,100767.09
2022-10-05T03:53:25.386Z,100770.66
2022-10-05T03:54:03.825Z,100773.25
2022-10-05T03:54:39.481Z,100770.03
2022-10-05T03:55:17.567Z,100775.06
2022-10-05T03:55:59.693Z,100775.84
2022-10-05T03:56:45.412Z,100775.22
2022-10-05T03:57:24.697Z,100776.53
2022-10-05T03:58:02.962Z,100774.06
2022-10-05T03:58:57.913Z,100778.09
2022-10-05T03:59:37.981Z,100778.09
2022-10-05T04:00:17.920Z,100780.22
2022-10-05T04:00:53.797Z,100777.75
2022-10-05T04:01:58.852Z,100772.59
2022-10-05T04:02:36.834Z,100779.41
2022-10-05T04:03:12.290Z,100779.06
2022-10-05T04:03:49.811Z,100785.84
2022-10-05T04:04:37.390Z,100775.34
2022-10-05T04:05:09.241Z,100780.41
2022-10-05T04:05:52.111Z,100777.81
2022-10-05T04:06:27.990Z,100777.19
2022-10-05T04:07:01.569Z,100782.03
2022-10-05T04:07:56.755Z,100777.16
2022-10-05T04:08:45.389Z,100780.25
2022-10-05T04:09:32.568Z,100771.66
2022-10-05T04:10:14.600Z,100773.28
2022-10-05T04:10:48.816Z,100774.06
2022-10-05T04:11:30.515Z,100770.81
2022-10-05T04:12:23.970Z,100775.69
2022-10-05T04:13:09.983Z,100774.56
2022-10-05T04:14:18.991Z,100775.56
2022-10-05T04:14:57.282Z,100777.16
2022-10-05T04:15:43.083Z,100774.41
2022-10-05T04:16:40.792Z,100784.97
2022-10-05T04:17:21.914Z,100781.03
2022-10-05T04:18:09.834Z,100777.13
2022-10-05T04:19:32.522Z,100778.44
2022-10-05T04:20:14.868Z,100776.53
2022-10-05T04:20:53.466Z,100782.69
2022-10-05T04:21:32.447Z,100775.16
2022-10-05T04:22:12.134Z,100779.91
2022-10-05T04:23:12.885Z,100772.44
2022-10-05T04:23:55.224Z,100778.53
2022-10-05T04:24:49.389Z,100772.25
2022-10-05T04:25:42.574Z,100779.75
2022-10-05T04:26:22.832Z,100780.69
2022-10-05T04:26:59.903Z,100776.16
2022-10-05T04:27:39.339Z,100771.94
2022-10-05T04:28:43.637Z,100776.81
2022-10-05T04:29:45.927Z,100786.56
2022-10-05T04:30:19.760Z,100780.22
2022-10-05T04:30:54.185Z,100779.56
2022-10-05T04:31:38.328Z,100780.22
2022-10-05T04:32:31.281Z,100780.91
2022-10-05T04:33:10.382Z,100786.44
2022-10-05T04:33:47.084Z,100775.22
2022-10-05T04:34:36.945Z,100782.00
2022-10-05T04:35:21.912Z,100778.75
2022-10-05T04:36:14.908Z,100770.97
2022-10-05T04:37:05.219Z,100772.03
2022-10-05T04:37:58.241Z,100770.91
2022-10-05T04:38:41.942Z,100775.75
2022-10-05T04:39:31.219Z,100776.81
2022-10-05T04:40:20.836Z,100782.16
2022-10-05T04:41:37.105Z,100779.75
2022-10-05T04:42:36.016Z,100778.12
2022-10-05T04:43:21.410Z,100782.19
2022-10-05T04:44:05.006Z,100780.06
2022-10-05T04:45:04.670Z,100779.75
2022-10-05T04:46:02.808Z,100779.13
2022-10-05T04:47:05.807Z,100779.13
2022-10-05T04:48:16.639Z,100778.47
2022-10-05T04:49:19.469Z,100784.66
2022-10-05T04:50:07.802Z,100785.59
2022-10-05T04:51:01.034Z,100782.84
2022-10-05T04:51:56.016Z,100779.13
2022-10-05T04:52:48.041Z,100784.47
2022-10-05T04:53:39.363Z,100770.00
2022-10-05T04:54:22.681Z,100772.94
2022-10-05T04:55:36.060Z,100769.53
2022-10-05T04:56:15.557Z,100777.19
2022-10-05T04:56:55.535Z,100777.84
2022-10-05T04:57:50.797Z,100767.75
2022-10-05T04:58:55.083Z,100777.66
2022-10-05T04:59:29.752Z,100779.13
2022-10-05T05:00:05.862Z,100773.75
2022-10-05T05:00:59.877Z,100775.53
2022-10-05T05:01:52.757Z,100774.41
2022-10-05T05:03:03.714Z,100774.56
2022-10-05T05:04:05.999Z,100773.56
2022-10-05T05:04:51.784Z,100770.62
2022-10-05T05:05:58.627Z,100768.34
2022-10-05T05:06:38.495Z,100766.41
2022-10-05T05:07:55.034Z,100773.22
2022-10-05T05:08:49.377Z,100774.34
2022-10-05T05:09:42.390Z,100776.81
2022-10-05T05:10:32.632Z,100769.22
2022-10-05T05:11:43.894Z,100770.00
2022-10-05T05:12:27.627Z,100769.34
2022-10-05T05:13:09.569Z,100772.94
2022-10-05T05:13:58.543Z,100771.94
2022-10-05T05:14:52.269Z,100778.28
2022-10-05T05:15:51.530Z,100766.09
2022-10-05T05:16:38.323Z,100767.84
2022-10-05T05:17:39.626Z,100764.78
2022-10-05T05:18:49.010Z,100769.16
2022-10-05T05:20:04.809Z,100772.44
2022-10-05T05:21:00.027Z,100773.22
2022-10-05T05:22:03.021Z,100777.16
2022-10-05T05:23:02.153Z,100774.41
2022-10-05T05:23:44.554Z,100776.81
2022-10-05T05:24:34.551Z,100770.34
2022-10-05T05:25:35.723Z,100769.69
2022-10-05T05:26:19.000Z,100768.72
2022-10-05T05:27:07.197Z,100774.25
2022-10-05T05:27:58.334Z,100770.66
2022-10-05T05:28:53.581Z,100769.84
2022-10-05T05:29:48.849Z,100769.97
2022-10-05T05:30:32.631Z,100772.87
2022-10-05T05:31:27.753Z,100775.59
2022-10-05T05:32:02.879Z,100769.37
2022-10-05T05:33:12.165Z,100767.91
2022-10-05T05:33:55.704Z,100767.41
2022-10-05T05:34:59.330Z,100784.94
2022-10-05T05:36:00.149Z,100776.50
2022-10-05T05:36:56.126Z,100780.16
2022-10-05T05:37:49.780Z,100775.13
2022-10-05T05:38:41.424Z,100783.84
2022-10-05T05:39:37.694Z,100784.03
2022-10-05T05:40:20.345Z,100787.19
2022-10-05T05:41:14.048Z,100788.75
2022-10-05T05:42:30.790Z,100789.06
2022-10-05T05:43:18.089Z,100786.84
2022-10-05T05:44:10.774Z,100787.03
2022-10-05T05:44:48.316Z,100790.09
2022-10-05T05:46:07.651Z,100787.88
2022-10-05T05:47:02.841Z,100786.09
2022-10-05T05:47:43.079Z,100795.72
2022-10-05T05:48:35.466Z,100788.09
2022-10-05T05:49:22.384Z,100789.59
2022-10-05T05:50:19.698Z,100797.19
2022-10-05T05:51:27.586Z,100796.84
2022-10-05T05:52:04.950Z,100796.13
2022-10-05T05:52:46.120Z,100799.06
2022-10-05T05:53:28.294Z,100804.06
2022-10-05T05:54:20.531Z,100804.72
2022-10-05T05:55:01.009Z,100797.75
2022-10-05T05:55:41.143Z,100802.97
2022-10-05T05:56:45.697Z,100801.44
2022-10-05T05:57:26.268Z,100805.19
2022-10-05T05:58:15.027Z,100803.31
2022-10-05T05:58:54.596Z,100815.88
2022-10-05T05:59:30.687Z,100820.47
2022-10-05T06:00:37.208Z,100814.50
2022-10-05T06:01:32.141Z,100825.62
2022-10-05T06:02:11.960Z,100825.44
2022-10-05T06:03:06.340Z,100826.59
2022-10-05T06:04:07.714Z,100830.50
2022-10-05T06:05:03.453Z,100828.25
2022-10-05T06:05:59.888Z,100827.44
2022-10-05T06:06:36.009Z,100829.38
2022-10-05T06:07:16.349Z,100823.22
2022-10-05T06:07:51.330Z,100823.50
2022-10-05T06:08:44.841Z,100834.88
2022-10-05T06:09:30.740Z,100835.34
2022-10-05T06:10:11.807Z,100834.53
2022-10-05T06:10:49.187Z,100840.59
2022-10-05T06:11:23.073Z,100839.53
2022-10-05T06:12:07.480Z,100844.75
2022-10-05T06:12:45.938Z,100844.91
2022-10-05T06:13:36.171Z,100846.41
2022-10-05T06:14:28.498Z,100846.47
2022-10-05T06:15:19.306Z,100849.19
2022-10-05T06:15:59.793Z,100851.63
2022-10-05T06:16:37.036Z,100853.94
2022-10-05T06:17:29.051Z,100851.38
2022-10-05T06:18:11.437Z,100856.03
2022-10-05T06:18:48.085Z,100855.53
2022-10-05T06:19:23.779Z,100851.94
2022-10-05T06:20:04.720Z,100857.75
2022-10-05T06:20:43.615Z,100857.59
2022-10-05T06:21:43.639Z,100862.00
2022-10-05T06:22:42.832Z,100856.69
2022-10-05T06:23:25.567Z,100860.91
2022-10-05T06:24:05.772Z,100868.03
2022-10-05T06:25:05.607Z,100864.44
2022-10-05T06:26:09.765Z,100867.41
2022-10-05T06:27:16.456Z,100860.72
2022-10-05T06:28:00.335Z,100871.44
2022-10-05T06:28:32.434Z,100873.16
2022-10-05T06:29:09.084Z,100871.81
2022-10-05T06:29:51.416Z,100873.09
2022-10-05T06:30:24.095Z,100876.38
2022-10-05T06:31:21.208Z,100875.84
2022-10-05T06:32:09.929Z,100873.94
2022-10-05T06:33:23.695Z,100872.38
2022-10-05T06:34:04.080Z,100880.00
2022-10-05T06:34:52.242Z,100882.50
2022-10-05T06:35:37.288Z,100890.03
2022-10-05T06:36:14.931Z,100882.50
2022-10-05T06:36:56.852Z,100888.56
2022-10-05T06:37:50.340Z,100889.91
2022-10-05T06:38:40.673Z,100885.06
2022-10-05T06:40:09.292Z,100867.44
2022-10-05T06:41:29.154Z,100869.72
2022-10-05T06:42:25.553Z,100873.53
2022-10-05T06:43:08.418Z,100871.91
2022-10-05T06:43:42.035Z,100867.28
2022-10-05T06:44:59.994Z,100873.91
2022-10-05T06:45:40.921Z,100872.06
2022-10-05T06:46:31.359Z,100879.09
2022-10-05T06:47:03.293Z,100881.34
2022-10-05T06:47:47.220Z,100879.88
2022-10-05T06:48:45.279Z,100871.66
2022-10-05T06:49:23.486Z,100876.28
2022-10-05T06:50:05.593Z,100881.88
2022-10-05T06:50:48.864Z,100880.72
2022-10-05T06:51:47.246Z,100880.25
2022-10-05T06:52:51.160Z,100878.13
2022-10-05T06:53:34.195Z,100888.00
2022-10-05T06:54:09.655Z,100888.44
2022-10-05T06:54:56.876Z,100886.81
2022-10-05T06:55:55.243Z,100889.78
2022-10-05T06:56:55.909Z,100884.09
2022-10-05T06:57:39.887Z,100882.62
2022-10-05T06:58:36.148Z,100889.34
2022-10-05T06:59:35.903Z,100887.72
2022-10-05T07:00:17.580Z,100890.91
2022-10-05T07:00:58.150Z,100887.31
2022-10-05T07:01:30.304Z,100893.16
2022-10-05T07:02:19.434Z,100894.63
2022-10-05T07:03:15.412Z,100892.72
2022-10-05T07:03:59.106Z,100900.84
2022-10-05T07:04:45.550Z,100902.75
2022-10-05T07:05:42.915Z,100907.22
2022-10-05T07:06:57.827Z,100907.63
2022-10-05T07:07:42.617Z,100905.44
2022-10-05T07:08:29.017Z,100913.41
2022-10-05T07:09:19.158Z,100909.69
2022-10-05T07:10:10.353Z,100913.06
2022-10-05T07:10:51.576Z,100915.88
2022-10-05T07:11:23.247Z,100916.22
2022-10-05T07:12:12.903Z,100917.63
2022-10-05T07:13:18.562Z,100915.34
2022-10-05T07:13:56.010Z,100921.59
2022-10-05T07:15:04.315Z,100916.88
2022-10-05T07:16:01.928Z,100914.41
2022-10-05T07:16:59.857Z,100914.63
2022-10-05T07:17:51.985Z,100912.78
2022-10-05T07:18:30.360Z,100911.44
2022-10-05T07:19:13.130Z,100903.28
2022-10-05T07:19:55.907Z,100907.91
2022-10-05T07:21:00.105Z,100904.72
2022-10-05T07:21:46.186Z,100904.19
2022-10-05T07:22:37.543Z,100914.87
2022-10-05T07:23:25.092Z,100905.38
2022-10-05T07:24:20.379Z,100911.69
2022-10-05T07:25:00.530Z,100911.37
2022-10-05T07:26:01.233Z,100915.72
2022-10-05T07:27:09.755Z,100911.84
2022-10-05T07:28:02.747Z,100915.31
2022-10-05T07:28:53.819Z,100918.09
2022-10-05T07:29:37.004Z,100912.78
2022-10-05T07:30:14.217Z,100919.66
2022-10-05T07:30:46.430Z,100918.06
2022-10-05T07:31:33.558Z,100926.47
2022-10-05T07:32:29.833Z,100923.25
2022-10-05T07:33:13.762Z,100924.97
2022-10-05T07:34:18.934Z,100926.22
2022-10-05T07:34:58.688Z,100929.06
2022-10-05T07:35:56.031Z,100926.38
2022-10-05T07:36:55.081Z,100923.84
2022-10-05T07:37:54.290Z,100922.91
2022-10-05T07:38:41.154Z,100926.59
2022-10-05T07:39:36.769Z,100926.81
2022-10-05T07:40:32.379Z,100931.28
2022-10-05T07:41:13.373Z,100927.06
2022-10-05T07:41:52.567Z,100932.66
2022-10-05T07:42:48.750Z,100919.56
2022-10-05T07:43:40.265Z,100921.50
2022-10-05T07:44:30.989Z,100922.94
2022-10-05T07:45:21.166Z,100917.59
2022-10-05T07:46:01.743Z,100919.66
2022-10-05T07:47:04.631Z,100925.28
2022-10-05T07:47:45.544Z,100922.50
2022-10-05T07:48:21.696Z,100919.47
2022-10-05T07:49:07.170Z,100918.87
2022-10-05T07:49:54.542Z,100918.59
2022-10-05T07:50:48.965Z,100913.81
2022-10-05T07:51:29.853Z,100912.91
2022-10-05T07:52:10.665Z,100908.72
2022-10-05T07:52:56.568Z,100914.06
2022-10-05T07:53:36.694Z,100902.88
2022-10-05T07:54:19.170Z,100909.09
2022-10-05T07:54:57.245Z,100904.47
2022-10-05T07:55:41.243Z,100902.53
2022-10-05T07:56:22.232Z,100906.53
2022-10-05T07:57:19.145Z,100908.19
2022-10-05T07:58:05.426Z,100909.09
2022-10-05T07:58:44.153Z,100907.22
2022-10-05T07:59:45.670Z,100903.47
2022-10-05T08:00:28.979Z,100908.09
2022-10-05T08:01:22.738Z,100916.47
2022-10-05T08:02:05.409Z,100917.28
2022-10-05T08:02:52.836Z,100920.47
2022-10-05T08:03:56.924Z,100924.66
2022-10-05T08:04:41.784Z,100927.97
2022-10-05T08:05:27.507Z,100923.88
2022-10-05T08:06:01.442Z,100916.16
2022-10-05T08:06:45.845Z,100923.94
2022-10-05T08:07:18.420Z,100921.56
2022-10-05T08:08:13.314Z,100925.88
2022-10-05T08:08:58.874Z,100918.09
2022-10-05T08:09:51.393Z,100925.75
2022-10-05T08:10:33.980Z,100923.41
2022-10-05T08:11:28.789Z,100923.09
2022-10-05T08:12:20.353Z,100917.16
2022-10-05T08:13:03.061Z,100911.13
2022-10-05T08:13:43.335Z,100914.81
2022-10-05T08:14:57.054Z,100904.84
2022-10-05T08:15:34.873Z,100902.09
2022-10-05T08:16:14.564Z,100905.03
2022-10-05T08:16:48.532Z,100900.06
2022-10-05T08:17:38.078Z,100898.94
2022-10-05T08:18:33.997Z,100898.34
2022-10-05T08:19:21.340Z,100897.94
2022-10-05T08:20:17.399Z,100891.25
2022-10-05T08:20:57.875Z,100894.22
2022-10-05T08:21:41.506Z,100892.97
2022-10-05T08:22:23.523Z,100891.06
2022-10-05T08:23:04.942Z,100902.34
2022-10-05T08:23:48.496Z,100894.75
2022-10-05T08:24:23.165Z,100887.22
2022-10-05T08:25:00.317Z,100894.28
2022-10-05T08:25:52.305Z,100890.94
2022-10-05T08:26:55.104Z,100895.38
2022-10-05T08:27:54.630Z,100888.59
2022-10-05T08:28:35.441Z,100894.25
2022-10-05T08:29:25.593Z,100894.63
2022-10-05T08:30:04.532Z,100894.19
2022-10-05T08:30:57.048Z,100891.75
2022-10-05T08:31:39.569Z,100893.84
2022-10-05T08:32:19.329Z,100894.28
2022-10-05T08:33:01.955Z,100895.78
2022-10-05T08:34:03.673Z,100896.88
2022-10-05T08:34:38.578Z,100901.16
2022-10-05T08:35:43.890Z,100907.00
2022-10-05T08:36:19.180Z,100904.09
2022-10-05T08:37:18.725Z,100906.97
2022-10-05T08:37:51.006Z,100903.03
2022-10-05T08:38:31.685Z,100905.72
2022-10-05T08:39:16.455Z,100900.69
2022-10-05T08:40:31.023Z,100894.37
2022-10-05T08:41:08.369Z,100901.69
2022-10-05T08:41:58.153Z,100896.56
2022-10-05T08:42:32.711Z,100896.94
2022-10-05T08:43:10.431Z,100896.28
2022-10-05T08:44:06.853Z,100885.38
2022-10-05T08:44:55.093Z,100889.44
2022-10-05T08:46:02.610Z,100893.41
2022-10-05T08:46:52.491Z,100904.97
2022-10-05T08:47:50.238Z,100904.53
2022-10-05T08:49:04.655Z,100901.06
2022-10-05T08:49:45.429Z,100899.44
2022-10-05T08:51:06.293Z,100900.00
2022-10-05T08:52:02.427Z,100902.72
2022-10-05T08:53:07.335Z,100899.47
2022-10-05T08:54:09.979Z,100898.22
2022-10-05T08:54:50.692Z,100905.41
2022-10-05T08:55:43.552Z,100901.44
2022-10-05T08:56:39.460Z,100909.56
2022-10-05T08:57:28.996Z,100905.19
2022-10-05T08:58:12.547Z,100907.28
2022-10-05T08:59:04.824Z,100904.00
2022-10-05T09:00:02.840Z,100900.50
2022-10-05T09:00:51.624Z,100903.34
2022-10-05T09:01:55.475Z,100895.91
2022-10-05T09:03:02.776Z,100908.75
2022-10-05T09:03:53.554Z,100907.47
2022-10-05T09:04:47.034Z,100905.63
2022-10-05T09:05:46.262Z,100910.44
2022-10-05T09:06:22.566Z,100915.44